Burbank, CA (91501)

9:05 AM PST on February 28, 2015 (GMT -0800)
Castle Heights | Change Station
CLOSE
Current Station
Personal Weather Station
Location: Glendale, CA
Elevation: 771 ft
Nearby Weather Stations

Elev 771 ft 34.18 °N, 118.29 °W | Updated 7 seconds ago

Partly Cloudy
Partly Cloudy
57.7 °F
Feels Like 57.7 °F
N
5.0
Wind Variable Wind from East
Gusts 5.0 mph

Today
High -- | Low -- °F
--% Chance of Precip.
Yesterday
High -- | Low -- °F
Precip. -- in
6:23 AM 5:48 PM
Waxing Gibbous, 78% visible
Pressure 29.81 in
Visibility 10.0 miles
Clouds Mostly Cloudy 2500 ft
Overcast 3000 ft
Dew Point 48 °F
Humidity 71%
Rainfall 0.00 in
Snow Depth Not available.
UV 1 out of 12
Pollen 8.50 out of 12
Air Quality Not available.
Flu Activity Not available.
METAR KBUR 281653Z 18004KT 10SM BKN025 OVC030 13/06 A2983 RMK AO2 SLP093 T01280061

More Conditions Fewer Conditions

Pressure 29.81 in
Visibility 10.0 miles
Clouds Mostly Cloudy 2500 ft
Overcast 3000 ft
Dew Point 48 °F
Humidity 71%
Rainfall 0.00 in
Snow Depth Not available.
UV 1 out of 12
Pollen 8.50 out of 12
Air Quality Not available.
Flu Activity Not available.
METAR KBUR 281653Z 18004KT 10SM BKN025 OVC030 13/06 A2983 RMK AO2 SLP093 T01280061

More Conditions Fewer Conditions

10-Day Weather Forecast

Almanac

Astronomy

Feb. 28, 2015 Rise Set
Actual Time
Civil Twilight
Nautical Twilight
Astronomical Twilight
Moon
Length of Visible Light
Length of Day
Tomorrow will be .
, % of the Moon is Illuminated

Today's Extremes

State Highs State Lows

Community

WunderPhotos

Upload Photos

1,801,089 photos uploaded!

WunderBlogs® & News

Nearby

Air Quality

  Air Quality AQ Index Pollutant
Not available.

Snow Depth

Station Depth Elevation

Earthquake Activity

City Distance Mag. Time & Date
Minimum magnitude displayed is 2.5.

Coastal Water Temperatures

Place Temperature

Nearby Weather Stations